createdAt,value
2019-02-11T00:00:01.068Z,69.18
2019-02-11T00:02:29.310Z,69.04
2019-02-11T00:04:57.499Z,68.82
2019-02-11T00:07:25.675Z,68.63
2019-02-11T00:09:53.851Z,68.22
2019-02-11T00:12:22.025Z,68.37
2019-02-11T00:14:50.197Z,68.72
2019-02-11T00:17:18.365Z,68.37
2019-02-11T00:19:46.546Z,68.20
2019-02-11T00:22:14.716Z,68.27
2019-02-11T00:24:42.897Z,68.17
2019-02-11T00:27:11.062Z,68.24
2019-02-11T00:29:39.280Z,68.23
2019-02-11T00:32:07.449Z,67.91
2019-02-11T00:34:35.626Z,68.19
2019-02-11T00:37:03.793Z,68.22
2019-02-11T00:39:31.966Z,68.35
2019-02-11T00:42:00.134Z,68.19
2019-02-11T00:44:28.317Z,68.17
2019-02-11T00:46:56.492Z,68.33
2019-02-11T00:49:24.730Z,68.43
2019-02-11T00:51:52.880Z,68.03
2019-02-11T00:54:21.086Z,68.01
2019-02-11T00:56:49.272Z,68.12
2019-02-11T00:59:17.442Z,67.83
2019-02-11T01:01:45.629Z,68.58
2019-02-11T01:04:13.836Z,68.13
2019-02-11T01:06:42.007Z,68.32
2019-02-11T01:09:10.208Z,68.31
2019-02-11T01:11:38.406Z,67.98
2019-02-11T01:14:06.576Z,67.81
2019-02-11T01:16:34.768Z,67.93
2019-02-11T01:19:02.944Z,67.91
2019-02-11T01:21:31.118Z,68.09
2019-02-11T01:23:59.285Z,67.84
2019-02-11T01:26:27.460Z,67.55
2019-02-11T01:28:55.657Z,67.97
2019-02-11T01:31:23.825Z,67.81
2019-02-11T01:33:52.006Z,67.48
2019-02-11T01:36:20.174Z,67.85
2019-02-11T01:38:48.374Z,67.50
2019-02-11T01:41:16.539Z,67.50
2019-02-11T01:43:44.745Z,67.47
2019-02-11T01:46:12.915Z,67.22
2019-02-11T01:48:41.083Z,67.00
2019-02-11T01:51:09.251Z,66.92
2019-02-11T01:53:37.431Z,67.45
2019-02-11T01:56:05.597Z,66.98
2019-02-11T01:58:33.795Z,67.16
2019-02-11T02:01:01.980Z,66.83
2019-02-11T02:03:30.139Z,67.26
2019-02-11T02:05:58.314Z,67.55
2019-02-11T02:08:26.477Z,67.10
2019-02-11T02:10:54.649Z,67.55
2019-02-11T02:13:22.847Z,67.62
2019-02-11T02:15:51.017Z,67.61
2019-02-11T02:18:19.215Z,67.53
2019-02-11T02:20:47.383Z,67.63
2019-02-11T02:23:15.590Z,67.88
2019-02-11T02:25:43.752Z,68.20
2019-02-11T02:28:11.925Z,67.97
2019-02-11T02:30:40.099Z,68.20
2019-02-11T02:33:08.271Z,68.19
2019-02-11T02:35:36.449Z,68.30
2019-02-11T02:38:04.638Z,68.18
2019-02-11T02:40:32.807Z,68.21
2019-02-11T02:43:01.146Z,68.14
2019-02-11T02:45:29.316Z,68.35
2019-02-11T02:47:57.486Z,68.05
2019-02-11T02:50:25.759Z,68.12
2019-02-11T02:52:53.934Z,68.26
2019-02-11T02:55:22.093Z,68.22
2019-02-11T02:57:50.257Z,68.11
2019-02-11T03:00:18.433Z,68.21
2019-02-11T03:02:46.595Z,68.16
2019-02-11T03:05:14.771Z,68.15
2019-02-11T03:07:42.945Z,67.64
2019-02-11T03:10:11.480Z,68.00
2019-02-11T03:12:39.659Z,67.94
2019-02-11T03:15:09.876Z,67.35
2019-02-11T03:17:38.049Z,67.89
2019-02-11T03:20:08.271Z,67.66
2019-02-11T03:22:36.449Z,67.84
2019-02-11T03:25:06.457Z,67.72
2019-02-11T03:27:34.663Z,67.48
2019-02-11T03:30:02.852Z,67.31
2019-02-11T03:32:30.986Z,67.67
2019-02-11T03:34:59.143Z,67.55
2019-02-11T03:37:27.304Z,67.48
2019-02-11T03:39:55.472Z,67.85
2019-02-11T03:42:23.721Z,67.89
2019-02-11T03:44:51.884Z,68.26
2019-02-11T03:47:20.053Z,68.44
2019-02-11T03:49:48.225Z,67.93
2019-02-11T03:52:16.391Z,68.34
2019-02-11T03:54:44.582Z,68.40
2019-02-11T03:57:12.748Z,67.82
2019-02-11T03:59:40.913Z,67.68
2019-02-11T04:02:09.075Z,67.67
2019-02-11T04:04:37.256Z,68.08
2019-02-11T04:07:05.419Z,67.65
2019-02-11T04:09:33.653Z,67.96
2019-02-11T04:12:01.843Z,68.56
2019-02-11T04:14:29.985Z,68.67
2019-02-11T04:16:58.149Z,68.92
2019-02-11T04:19:26.321Z,68.96
2019-02-11T04:22:07.652Z,69.32
2019-02-11T04:24:35.811Z,69.91
2019-02-11T04:27:03.982Z,69.99
2019-02-11T04:29:32.185Z,70.17
2019-02-11T04:32:00.352Z,70.67
2019-02-11T04:34:28.518Z,71.00
2019-02-11T04:36:56.698Z,71.54
2019-02-11T04:39:24.874Z,71.71
2019-02-11T04:41:53.044Z,72.15
2019-02-11T04:44:21.225Z,72.60
2019-02-11T04:46:49.460Z,72.87
2019-02-11T04:49:17.644Z,73.22
2019-02-11T04:51:45.839Z,73.45
2019-02-11T04:54:13.987Z,73.75
2019-02-11T04:56:42.195Z,73.93
2019-02-11T04:59:10.375Z,74.23
2019-02-11T05:01:38.540Z,74.30
2019-02-11T05:04:06.713Z,74.68
2019-02-11T05:06:34.894Z,74.67
2019-02-11T05:09:04.939Z,74.75
2019-02-11T05:11:33.109Z,74.79
2019-02-11T05:14:01.276Z,74.61
2019-02-11T05:16:29.459Z,74.83
2019-02-11T05:18:57.632Z,74.86
2019-02-11T05:21:25.796Z,74.98
2019-02-11T05:23:53.963Z,75.04
2019-02-11T05:26:22.872Z,74.80
2019-02-11T05:28:51.107Z,74.88
2019-02-11T05:31:19.280Z,74.91
2019-02-11T05:33:47.534Z,75.11
2019-02-11T05:36:15.707Z,75.24
2019-02-11T05:38:43.869Z,75.51
2019-02-11T05:41:12.090Z,75.24
2019-02-11T05:43:40.256Z,75.39
2019-02-11T05:46:08.441Z,75.50
2019-02-11T05:48:36.602Z,75.54
2019-02-11T05:51:04.802Z,75.53
2019-02-11T05:53:33.029Z,75.55
2019-02-11T05:56:01.204Z,75.66
2019-02-11T05:58:29.379Z,75.51
2019-02-11T06:00:57.541Z,75.35
2019-02-11T06:03:25.716Z,75.53
2019-02-11T06:05:53.880Z,75.53
2019-02-11T06:08:22.048Z,75.54
2019-02-11T06:10:50.485Z,75.50
2019-02-11T06:13:18.649Z,75.52
2019-02-11T06:15:46.825Z,75.41
2019-02-11T06:18:14.984Z,75.34
2019-02-11T06:20:43.156Z,74.96
2019-02-11T06:23:11.331Z,74.87
2019-02-11T06:25:39.504Z,75.03
2019-02-11T06:28:07.676Z,75.11
2019-02-11T06:30:35.839Z,74.97
2019-02-11T06:33:04.014Z,75.13
2019-02-11T06:35:32.180Z,74.96
2019-02-11T06:38:00.345Z,74.91
2019-02-11T06:40:28.518Z,75.23
2019-02-11T06:42:56.690Z,75.31
2019-02-11T06:45:24.871Z,75.04
2019-02-11T06:47:53.046Z,75.35
2019-02-11T06:50:21.213Z,75.44
2019-02-11T06:52:49.383Z,75.62
2019-02-11T06:55:17.550Z,75.35
2019-02-11T06:57:45.721Z,75.43
2019-02-11T07:00:15.036Z,75.46
2019-02-11T07:02:43.241Z,75.58
2019-02-11T07:05:11.415Z,75.51
2019-02-11T07:07:39.582Z,75.38
2019-02-11T07:10:12.313Z,75.30
2019-02-11T07:12:40.488Z,75.66
2019-02-11T07:15:11.558Z,75.56
2019-02-11T07:17:39.719Z,75.49
2019-02-11T07:20:09.726Z,75.44
2019-02-11T07:22:37.914Z,75.45
2019-02-11T07:25:07.830Z,75.40
2019-02-11T07:27:36.015Z,75.37
2019-02-11T07:30:05.067Z,75.48
2019-02-11T07:32:33.263Z,75.35
2019-02-11T07:35:01.464Z,75.22
2019-02-11T07:37:29.646Z,75.27
2019-02-11T07:39:57.840Z,75.00
2019-02-11T07:42:36.416Z,75.20
2019-02-11T07:45:09.060Z,74.94
2019-02-11T07:47:37.311Z,74.72
2019-02-11T07:50:06.613Z,74.51
2019-02-11T07:52:34.790Z,74.20
2019-02-11T07:55:02.985Z,74.13
2019-02-11T07:57:31.150Z,73.62
2019-02-11T08:00:00.290Z,73.56
2019-02-11T08:02:28.468Z,73.35
2019-02-11T08:04:56.674Z,73.43
2019-02-11T08:07:24.844Z,73.21
2019-02-11T08:09:53.009Z,73.43
2019-02-11T08:12:21.190Z,73.28
2019-02-11T08:14:49.362Z,73.08
2019-02-11T08:17:17.526Z,73.13
2019-02-11T08:19:45.697Z,73.16
2019-02-11T08:22:13.872Z,73.29
2019-02-11T08:24:42.048Z,73.28
2019-02-11T08:27:10.221Z,73.08
2019-02-11T08:29:38.394Z,73.12
2019-02-11T08:32:06.564Z,73.13
2019-02-11T08:34:34.736Z,72.88
2019-02-11T08:37:02.902Z,72.81
2019-02-11T08:39:31.068Z,72.49
2019-02-11T08:41:59.232Z,72.27
2019-02-11T08:44:27.401Z,72.38
2019-02-11T08:46:55.565Z,72.14
2019-02-11T08:49:23.762Z,72.05
2019-02-11T08:51:51.894Z,72.08
2019-02-11T08:54:20.060Z,71.97
2019-02-11T08:56:48.226Z,71.66
2019-02-11T08:59:16.401Z,71.54
2019-02-11T09:01:44.593Z,71.59
2019-02-11T09:04:18.822Z,71.62
2019-02-11T09:06:42.665Z,71.68
2019-02-11T09:09:10.842Z,71.61
2019-02-11T09:11:39.024Z,71.28
2019-02-11T09:14:07.195Z,71.34
2019-02-11T09:16:35.360Z,71.21
2019-02-11T09:19:03.530Z,71.09
2019-02-11T09:21:31.716Z,70.71
2019-02-11T09:23:59.884Z,70.94
2019-02-11T09:26:28.062Z,70.48
2019-02-11T09:28:56.221Z,70.36
2019-02-11T09:31:24.390Z,70.95
2019-02-11T09:33:52.561Z,70.94
2019-02-11T09:36:22.463Z,70.58
2019-02-11T09:38:50.582Z,70.79
2019-02-11T09:41:18.747Z,70.89
2019-02-11T09:43:46.916Z,70.34
2019-02-11T09:46:15.124Z,70.19
2019-02-11T09:48:43.306Z,70.28
2019-02-11T09:51:11.474Z,70.43
2019-02-11T09:53:39.639Z,70.24
2019-02-11T09:56:07.875Z,69.97
2019-02-11T09:58:36.007Z,69.96
2019-02-11T10:01:04.181Z,70.27
2019-02-11T10:03:32.340Z,69.79
2019-02-11T10:06:00.511Z,70.15
2019-02-11T10:08:28.700Z,69.71
2019-02-11T10:10:56.882Z,69.64
2019-02-11T10:13:25.057Z,69.62
2019-02-11T10:15:53.229Z,69.40
2019-02-11T10:18:21.398Z,69.59
2019-02-11T10:20:49.565Z,69.34
2019-02-11T10:23:17.756Z,68.99
2019-02-11T10:25:45.948Z,68.75
2019-02-11T10:28:14.113Z,68.94
2019-02-11T10:30:42.293Z,68.57
2019-02-11T10:33:10.463Z,68.26
2019-02-11T10:35:42.226Z,69.16
2019-02-11T10:38:08.531Z,69.78
2019-02-11T10:40:36.710Z,69.33
2019-02-11T10:43:04.880Z,69.22
2019-02-11T10:45:36.593Z,69.29
2019-02-11T10:48:02.937Z,69.78
2019-02-11T10:50:31.104Z,69.84
2019-02-11T10:52:59.273Z,69.76
2019-02-11T10:55:27.444Z,68.47
2019-02-11T10:57:55.640Z,68.95
2019-02-11T11:00:24.851Z,67.86
2019-02-11T11:02:53.016Z,69.11
2019-02-11T11:05:21.199Z,69.17
2019-02-11T11:07:49.390Z,68.87
2019-02-11T11:10:23.617Z,68.57
2019-02-11T11:12:51.781Z,68.60
2019-02-11T11:15:19.951Z,68.70
2019-02-11T11:17:48.117Z,67.90
2019-02-11T11:20:17.730Z,68.54
2019-02-11T11:22:46.065Z,68.91
2019-02-11T11:25:16.183Z,68.41
2019-02-11T11:27:45.370Z,69.13
2019-02-11T11:30:15.293Z,69.33
2019-02-11T11:32:43.895Z,68.43
2019-02-11T11:35:12.714Z,67.90
2019-02-11T11:37:40.902Z,68.49
2019-02-11T11:40:24.253Z,68.21
2019-02-11T11:42:52.425Z,68.09
2019-02-11T11:45:21.049Z,67.23
2019-02-11T11:47:49.222Z,67.26
2019-02-11T11:50:17.711Z,66.93
2019-02-11T11:52:45.885Z,66.86
2019-02-11T11:55:19.220Z,66.44
2019-02-11T11:57:47.410Z,67.09
2019-02-11T12:00:22.025Z,67.05
2019-02-11T12:03:01.997Z,66.67
2019-02-11T12:05:20.364Z,66.35
2019-02-11T12:07:48.534Z,66.36
2019-02-11T12:10:16.716Z,66.64
2019-02-11T12:12:44.896Z,66.20
2019-02-11T12:15:15.662Z,66.36
2019-02-11T12:17:45.163Z,66.06
2019-02-11T12:20:14.485Z,66.67
2019-02-11T12:22:42.651Z,66.23
2019-02-11T12:25:15.403Z,66.37
2019-02-11T12:27:43.590Z,66.03
2019-02-11T12:30:17.006Z,65.57
2019-02-11T12:32:45.180Z,64.81
2019-02-11T12:35:14.101Z,64.72
2019-02-11T12:37:42.301Z,64.92
2019-02-11T12:40:11.797Z,65.74
2019-02-11T12:42:40.005Z,66.47
2019-02-11T12:45:11.083Z,67.32
2019-02-11T12:47:39.251Z,67.11
2019-02-11T12:50:13.128Z,68.02
2019-02-11T12:52:41.289Z,68.32
2019-02-11T12:55:12.045Z,68.51
2019-02-11T12:57:40.234Z,68.47
2019-02-11T13:00:16.816Z,68.11
2019-02-11T13:02:44.058Z,68.09
2019-02-11T13:05:12.471Z,68.51
2019-02-11T13:07:40.645Z,68.41
2019-02-11T13:10:12.395Z,67.98
2019-02-11T13:12:40.581Z,67.97
2019-02-11T13:15:10.781Z,67.43
2019-02-11T13:17:38.977Z,67.32
2019-02-11T13:20:11.841Z,66.20
2019-02-11T13:22:40.136Z,66.52
2019-02-11T13:25:10.684Z,66.13
2019-02-11T13:27:38.837Z,65.99
2019-02-11T13:30:11.811Z,66.05
2019-02-11T13:32:40.220Z,66.18
2019-02-11T13:35:08.472Z,65.76
2019-02-11T13:37:36.647Z,65.51
2019-02-11T13:40:06.257Z,65.36
2019-02-11T13:42:34.430Z,66.10
2019-02-11T13:45:02.682Z,65.54
2019-02-11T13:47:30.936Z,66.54
2019-02-11T13:49:59.129Z,67.11
2019-02-11T13:52:27.572Z,67.63
2019-02-11T13:54:56.381Z,68.62
2019-02-11T13:57:24.671Z,69.13
2019-02-11T13:59:54.578Z,69.08
2019-02-11T14:02:22.820Z,69.94
2019-02-11T14:04:50.937Z,70.29
2019-02-11T14:07:19.313Z,70.38
2019-02-11T14:09:47.454Z,70.13
2019-02-11T14:12:15.655Z,70.38
2019-02-11T14:14:43.832Z,70.70
2019-02-11T14:17:11.985Z,70.38
2019-02-11T14:19:40.155Z,70.48
2019-02-11T14:22:08.334Z,70.51
2019-02-11T14:24:36.501Z,70.19
2019-02-11T14:27:04.682Z,70.04
2019-02-11T14:29:32.854Z,69.43
2019-02-11T14:32:01.031Z,69.42
2019-02-11T14:34:29.194Z,69.45
2019-02-11T14:36:57.381Z,69.60
2019-02-11T14:39:25.543Z,69.59
2019-02-11T14:41:53.729Z,69.34
2019-02-11T14:44:21.922Z,69.63
2019-02-11T14:46:50.143Z,69.64
2019-02-11T14:49:18.316Z,69.52
2019-02-11T14:51:46.481Z,69.31
2019-02-11T14:54:14.651Z,69.58
2019-02-11T14:56:42.936Z,69.27
2019-02-11T14:59:11.091Z,69.41
2019-02-11T15:01:39.262Z,69.33
2019-02-11T15:04:07.454Z,69.37
2019-02-11T15:06:35.621Z,69.36
2019-02-11T15:09:04.770Z,69.30
2019-02-11T15:11:32.935Z,69.33
2019-02-11T15:14:01.109Z,69.06
2019-02-11T15:16:29.281Z,68.43
2019-02-11T15:18:57.787Z,68.73
2019-02-11T15:21:26.009Z,68.88
2019-02-11T15:23:54.190Z,68.71
2019-02-11T15:26:22.363Z,68.50
2019-02-11T15:28:50.549Z,68.65
2019-02-11T15:31:18.723Z,68.37
2019-02-11T15:33:46.893Z,68.08
2019-02-11T15:36:15.062Z,67.96
2019-02-11T15:38:43.268Z,68.23
2019-02-11T15:41:11.480Z,68.19
2019-02-11T15:43:39.629Z,68.43
2019-02-11T15:46:07.792Z,67.90
2019-02-11T15:48:42.917Z,67.98
2019-02-11T15:51:05.854Z,67.96
2019-02-11T15:53:34.028Z,67.96
2019-02-11T15:56:07.675Z,67.82
2019-02-11T15:58:32.191Z,67.91
2019-02-11T16:01:00.436Z,68.14
2019-02-11T16:03:28.649Z,68.03
2019-02-11T16:05:56.817Z,67.45
2019-02-11T16:08:24.985Z,67.50
2019-02-11T16:11:01.061Z,67.23
2019-02-11T16:13:23.046Z,66.98
2019-02-11T16:15:51.208Z,67.61
2019-02-11T16:18:19.380Z,67.65
2019-02-11T16:20:47.574Z,67.14
2019-02-11T16:23:15.748Z,67.37
2019-02-11T16:25:43.919Z,66.74
2019-02-11T16:28:12.105Z,67.50
2019-02-11T16:30:40.250Z,67.57
2019-02-11T16:33:08.419Z,67.34
2019-02-11T16:35:36.642Z,67.38
2019-02-11T16:38:04.808Z,67.76
2019-02-11T16:40:32.981Z,67.70
2019-02-11T16:43:01.160Z,67.46
2019-02-11T16:45:29.332Z,67.31
2019-02-11T16:47:57.503Z,67.70
2019-02-11T16:50:25.679Z,67.80
2019-02-11T16:52:53.871Z,67.87
2019-02-11T16:55:22.037Z,68.18
2019-02-11T16:57:50.204Z,68.21
2019-02-11T17:00:19.515Z,68.41
2019-02-11T17:02:47.690Z,68.69
2019-02-11T17:05:15.866Z,68.74
2019-02-11T17:07:44.080Z,69.02
2019-02-11T17:10:15.661Z,69.44
2019-02-11T17:12:43.849Z,69.65
2019-02-11T17:15:15.305Z,69.46
2019-02-11T17:17:43.470Z,69.79
2019-02-11T17:20:16.030Z,69.89
2019-02-11T17:22:44.563Z,70.03
2019-02-11T17:25:13.744Z,70.02
2019-02-11T17:27:42.124Z,70.21
2019-02-11T17:30:13.390Z,70.27
2019-02-11T17:32:41.730Z,70.31
2019-02-11T17:35:10.408Z,70.37
2019-02-11T17:37:38.581Z,70.40
2019-02-11T17:40:12.140Z,70.29
2019-02-11T17:42:40.325Z,70.29
2019-02-11T17:45:17.444Z,70.04
2019-02-11T17:47:45.691Z,70.02
2019-02-11T17:50:14.591Z,70.30
2019-02-11T17:52:42.823Z,70.20
2019-02-11T17:55:12.918Z,70.08
2019-02-11T17:57:41.138Z,70.66
2019-02-11T18:00:17.242Z,70.63
2019-02-11T18:02:45.495Z,70.48
2019-02-11T18:05:13.702Z,70.57
2019-02-11T18:07:41.870Z,70.67
2019-02-11T18:10:10.104Z,70.58
2019-02-11T18:12:38.642Z,70.60
2019-02-11T18:15:10.029Z,70.53
2019-02-11T18:17:38.215Z,70.62
2019-02-11T18:20:08.228Z,70.56
2019-02-11T18:22:36.405Z,70.71
2019-02-11T18:25:06.610Z,70.61
2019-02-11T18:27:36.741Z,70.68
2019-02-11T18:30:08.014Z,70.60
2019-02-11T18:32:36.184Z,70.60
2019-02-11T18:35:07.142Z,70.74
2019-02-11T18:37:35.310Z,70.65
2019-02-11T18:40:04.150Z,70.49
2019-02-11T18:42:32.318Z,70.79
2019-02-11T18:45:00.495Z,70.65
2019-02-11T18:47:38.521Z,70.44
2019-02-11T18:50:15.597Z,70.38
2019-02-11T18:52:43.806Z,70.36
2019-02-11T18:55:13.866Z,70.24
2019-02-11T18:57:42.034Z,70.22
2019-02-11T19:00:13.817Z,70.26
2019-02-11T19:02:41.992Z,70.51
2019-02-11T19:05:10.169Z,70.34
2019-02-11T19:07:38.412Z,70.78
2019-02-11T19:10:09.491Z,71.15
2019-02-11T19:12:37.669Z,71.40
2019-02-11T19:15:08.786Z,71.64
2019-02-11T19:17:36.964Z,71.50
2019-02-11T19:20:08.082Z,71.03
2019-02-11T19:22:36.261Z,70.78
2019-02-11T19:25:05.975Z,70.23
2019-02-11T19:27:34.140Z,69.68
2019-02-11T19:30:02.311Z,69.00
2019-02-11T19:32:30.478Z,68.26
2019-02-11T19:34:58.650Z,68.55
2019-02-11T19:37:26.824Z,68.57
2019-02-11T19:39:54.994Z,68.30
2019-02-11T19:42:23.174Z,68.59
2019-02-11T19:44:51.353Z,69.19
2019-02-11T19:47:20.502Z,69.45
2019-02-11T19:49:51.792Z,70.03
2019-02-11T19:52:18.603Z,70.68
2019-02-11T19:54:46.780Z,70.99
2019-02-11T19:57:14.950Z,71.38
2019-02-11T19:59:44.080Z,71.34
2019-02-11T20:02:12.319Z,71.29
2019-02-11T20:04:40.497Z,70.92
2019-02-11T20:07:08.823Z,70.94
2019-02-11T20:09:36.998Z,70.91
2019-02-11T20:12:05.181Z,70.95
2019-02-11T20:14:33.357Z,70.84
2019-02-11T20:17:01.538Z,71.24
2019-02-11T20:19:30.668Z,71.21
2019-02-11T20:21:58.851Z,71.40
2019-02-11T20:24:27.029Z,71.42
2019-02-11T20:26:55.216Z,71.61
2019-02-11T20:29:23.392Z,71.76
2019-02-11T20:31:51.570Z,71.78
2019-02-11T20:34:19.744Z,71.81
2019-02-11T20:36:47.907Z,71.89
2019-02-11T20:39:16.086Z,72.17
2019-02-11T20:41:44.258Z,72.20
2019-02-11T20:44:12.450Z,72.08
2019-02-11T20:46:40.626Z,72.25
2019-02-11T20:49:09.768Z,72.45
2019-02-11T20:51:37.939Z,72.40
2019-02-11T20:54:06.123Z,72.49
2019-02-11T20:56:34.299Z,72.44
2019-02-11T20:59:02.485Z,72.43
2019-02-11T21:01:31.689Z,72.23
2019-02-11T21:03:59.876Z,72.39
2019-02-11T21:06:29.296Z,72.24
2019-02-11T21:08:57.398Z,71.73
2019-02-11T21:11:26.398Z,71.62
2019-02-11T21:13:54.583Z,71.45
2019-02-11T21:16:22.760Z,71.37
2019-02-11T21:18:51.008Z,71.27
2019-02-11T21:21:19.182Z,71.15
2019-02-11T21:23:47.355Z,71.14
2019-02-11T21:26:15.531Z,71.23
2019-02-11T21:28:43.740Z,71.18
2019-02-11T21:31:11.906Z,71.08
2019-02-11T21:33:40.082Z,70.99
2019-02-11T21:36:08.270Z,70.61
2019-02-11T21:38:36.438Z,70.68
2019-02-11T21:41:04.722Z,70.69
2019-02-11T21:43:32.971Z,70.70
2019-02-11T21:46:01.173Z,70.69
2019-02-11T21:48:29.348Z,70.50
2019-02-11T21:50:57.537Z,70.93
2019-02-11T21:53:25.715Z,70.73
2019-02-11T21:55:53.907Z,71.11
2019-02-11T21:58:23.055Z,71.14
2019-02-11T22:00:51.258Z,71.36
2019-02-11T22:03:19.453Z,71.40
2019-02-11T22:05:47.623Z,71.29
2019-02-11T22:08:15.811Z,71.41
2019-02-11T22:10:44.004Z,71.55
2019-02-11T22:13:12.212Z,71.61
2019-02-11T22:15:40.499Z,71.70
2019-02-11T22:18:08.704Z,71.76
2019-02-11T22:20:36.895Z,71.80
2019-02-11T22:23:05.110Z,71.45
2019-02-11T22:25:33.278Z,71.67
2019-02-11T22:28:01.536Z,71.58
2019-02-11T22:30:30.665Z,71.34
2019-02-11T22:32:58.845Z,71.40
2019-02-11T22:35:27.040Z,71.31
2019-02-11T22:37:55.206Z,71.46
2019-02-11T22:40:23.470Z,71.39
2019-02-11T22:42:51.685Z,71.59
2019-02-11T22:45:25.203Z,71.74
2019-02-11T22:47:54.322Z,71.49
2019-02-11T22:50:22.562Z,71.60
2019-02-11T22:52:50.754Z,71.57
2019-02-11T22:55:19.021Z,71.57
2019-02-11T22:57:47.202Z,71.67
2019-02-11T23:00:47.124Z,71.75
2019-02-11T23:03:15.424Z,71.57
2019-02-11T23:05:43.684Z,71.65
2019-02-11T23:08:11.883Z,71.66
2019-02-11T23:10:40.111Z,71.78
2019-02-11T23:13:08.323Z,71.65
2019-02-11T23:15:36.493Z,71.59
2019-02-11T23:18:04.670Z,71.51
2019-02-11T23:20:32.848Z,71.79
2019-02-11T23:23:01.015Z,71.65
2019-02-11T23:25:29.185Z,71.67
2019-02-11T23:27:57.432Z,71.88
2019-02-11T23:30:25.611Z,71.88
2019-02-11T23:32:53.786Z,71.91
2019-02-11T23:35:21.976Z,72.17
2019-02-11T23:37:50.149Z,72.36
2019-02-11T23:40:18.334Z,72.24
2019-02-11T23:42:46.530Z,72.31
2019-02-11T23:45:14.750Z,72.42
2019-02-11T23:47:42.926Z,72.63
2019-02-11T23:50:11.839Z,72.66
2019-02-11T23:52:40.036Z,72.66
2019-02-11T23:55:09.383Z,72.68
2019-02-11T23:57:37.559Z,73.00
